Airfield :
LOGIN :

Register | Disclaimer

   EN    FR    IT 

 










Legend :    VFR   Marginal VFR   IFR   Intensive IFR   Very Intensive IFR
Visi :
Ceiling :
>= 8 km
>= 3000ft
5 to 8 km
1000 to 3000 ft
1500m to 5 km
500 to 1000 ft
800 to 1500m
200 to 500 ft
< 800m
< 200 ft
Symbols :   Thunderstorms  Fog  Heavy snow  Heavy precipitations  Wind > 20 kt
SIGMETs :     Misc.  Thunderstorms  Icing  Turbulence  Mountain Waves  Volcanic Ashes






- Airport Elevation : 359 ft
- IATA code : DEB


LHDC - Debrecen

CURRENT METAR :
  • 260515Z AUTO 08005KT 030V110 CAVOK 17/12 Q1019 NOSIG

EXPIRED METARs :
  • 260445Z AUTO 08004KT CAVOK 16/12 Q1019 NOSIG
  • 260415Z AUTO 08004KT 010V130 CAVOK 15/12 Q1019 NOSIG
  • 260345Z AUTO 07004KT 040V100 CAVOK 14/11 Q1019 NOSIG
  • 260315Z AUTO 06005KT CAVOK 13/11 Q1018 NOSIG
  • 260245Z AUTO 07006KT CAVOK 13/11 Q1018 NOSIG
  • 260215Z AUTO 07006KT CAVOK 14/11 Q1018 NOSIG
  • 260145Z AUTO 07007KT CAVOK 14/11 Q1018 NOSIG
  • 260115Z AUTO 06007KT CAVOK 14/11 Q1018 NOSIG
  • 260045Z AUTO 07007KT CAVOK 15/11 Q1018 NOSIG

TAF TAF LHDC
Valid from the 26 at 06:00 until the 26 at 15:00 UTC


260515Z 2606/2615 11006KT CAVOK
TEMPO 2606/2610 20006KT



MET'MAP, your aeronautical weather chart ! - Copyright ORBIFLY December 2007 - Disclaimer

ORBIFLY MET'MAP TEAM :

Programming & Development : Alexandra Zaïnal
Original concept : Baudouin d'Aumeries
Technical & hardware support : Manuel Goepfert
Assistance : Marc-Olivier Méhu




SOURCES & CREDITS :

   NOAA